sensor_id;sensor_type;location;lat;lon;timestamp;P1;durP1;ratioP1;P2;durP2;ratioP2
72674;SDS011;60752;53.962;9.614;2023-05-21T00:23:28;7.03;;;1.60;;
72674;SDS011;60752;53.962;9.614;2023-05-21T00:53:30;7.43;;;1.20;;
72674;SDS011;60752;53.962;9.614;2023-05-21T01:23:32;5.83;;;1.57;;
72674;SDS011;60752;53.962;9.614;2023-05-21T01:53:34;4.35;;;1.33;;
72674;SDS011;60752;53.962;9.614;2023-05-21T02:23:36;5.20;;;1.80;;
72674;SDS011;60752;53.962;9.614;2023-05-21T02:53:38;7.63;;;1.77;;
72674;SDS011;60752;53.962;9.614;2023-05-21T03:23:40;8.77;;;2.20;;
72674;SDS011;60752;53.962;9.614;2023-05-21T03:53:42;5.37;;;1.60;;
72674;SDS011;60752;53.962;9.614;2023-05-21T04:23:43;5.63;;;2.38;;
72674;SDS011;60752;53.962;9.614;2023-05-21T04:53:45;9.60;;;2.57;;
72674;SDS011;60752;53.962;9.614;2023-05-21T05:23:47;7.57;;;3.00;;
72674;SDS011;60752;53.962;9.614;2023-05-21T05:53:49;8.23;;;2.80;;
72674;SDS011;60752;53.962;9.614;2023-05-21T06:23:51;7.37;;;3.30;;
72674;SDS011;60752;53.962;9.614;2023-05-21T06:53:52;7.25;;;3.42;;
72674;SDS011;60752;53.962;9.614;2023-05-21T07:23:54;10.50;;;4.23;;
72674;SDS011;60752;53.962;9.614;2023-05-21T07:53:56;12.37;;;4.70;;
72674;SDS011;60752;53.962;9.614;2023-05-21T08:23:58;11.30;;;5.03;;
72674;SDS011;60752;53.962;9.614;2023-05-21T08:54:00;13.80;;;5.27;;
72674;SDS011;60752;53.962;9.614;2023-05-21T09:24:03;14.70;;;5.30;;
72674;SDS011;60752;53.962;9.614;2023-05-21T09:54:06;11.90;;;5.97;;
72674;SDS011;60752;53.962;9.614;2023-05-21T10:24:11;14.57;;;6.00;;
72674;SDS011;60752;53.962;9.614;2023-05-21T11:24:47;13.73;;;6.90;;
72674;SDS011;60752;53.962;9.614;2023-05-21T11:54:50;13.85;;;7.60;;
72674;SDS011;60752;53.962;9.614;2023-05-21T12:24:53;14.67;;;7.83;;
72674;SDS011;60752;53.962;9.614;2023-05-21T12:54:55;17.07;;;8.43;;
72674;SDS011;60752;53.962;9.614;2023-05-21T13:24:57;12.83;;;7.53;;
72674;SDS011;60752;53.962;9.614;2023-05-21T13:54:59;13.10;;;6.93;;
72674;SDS011;60752;53.962;9.614;2023-05-21T14:25:01;11.23;;;6.10;;
72674;SDS011;60752;53.962;9.614;2023-05-21T14:55:03;10.33;;;6.00;;
72674;SDS011;60752;53.962;9.614;2023-05-21T15:25:06;11.37;;;6.40;;
72674;SDS011;60752;53.962;9.614;2023-05-21T15:55:08;10.20;;;6.40;;
72674;SDS011;60752;53.962;9.614;2023-05-21T16:25:10;10.90;;;5.57;;
72674;SDS011;60752;53.962;9.614;2023-05-21T16:55:12;10.10;;;6.20;;
72674;SDS011;60752;53.962;9.614;2023-05-21T17:25:14;10.00;;;6.97;;
72674;SDS011;60752;53.962;9.614;2023-05-21T17:55:15;12.13;;;6.77;;
72674;SDS011;60752;53.962;9.614;2023-05-21T18:25:17;11.70;;;6.00;;
72674;SDS011;60752;53.962;9.614;2023-05-21T18:55:19;12.87;;;6.50;;
72674;SDS011;60752;53.962;9.614;2023-05-21T19:25:21;12.32;;;6.00;;
72674;SDS011;60752;53.962;9.614;2023-05-21T19:55:23;11.27;;;6.00;;
72674;SDS011;60752;53.962;9.614;2023-05-21T20:25:25;11.37;;;6.40;;
72674;SDS011;60752;53.962;9.614;2023-05-21T20:55:26;11.63;;;6.60;;
72674;SDS011;60752;53.962;9.614;2023-05-21T21:25:28;11.80;;;7.40;;
72674;SDS011;60752;53.962;9.614;2023-05-21T21:55:30;10.38;;;6.35;;
72674;SDS011;60752;53.962;9.614;2023-05-21T22:25:32;11.93;;;7.03;;
72674;SDS011;60752;53.962;9.614;2023-05-21T22:55:34;12.97;;;6.80;;
72674;SDS011;60752;53.962;9.614;2023-05-21T23:25:35;10.23;;;6.27;;
72674;SDS011;60752;53.962;9.614;2023-05-21T23:55:37;12.23;;;6.60;;
